createdAt,value
2023-05-05T00:01:01.133Z,89.00
2023-05-05T00:03:28.150Z,89.00
2023-05-05T00:05:55.401Z,88.80
2023-05-05T00:08:23.114Z,88.70
2023-05-05T00:10:53.587Z,88.80
2023-05-05T00:13:21.230Z,88.80
2023-05-05T00:15:52.615Z,88.70
2023-05-05T00:18:20.758Z,88.60
2023-05-05T00:20:48.008Z,88.50
2023-05-05T00:23:16.088Z,88.70
2023-05-05T00:25:43.528Z,88.70
2023-05-05T00:28:14.527Z,88.80
2023-05-05T00:30:41.767Z,88.90
2023-05-05T00:33:10.032Z,89.40
2023-05-05T00:35:37.081Z,89.70
2023-05-05T00:38:05.028Z,89.50
2023-05-05T00:40:32.058Z,89.60
2023-05-05T00:43:01.081Z,89.60
2023-05-05T00:45:28.372Z,89.60
2023-05-05T00:47:58.439Z,89.70
2023-05-05T00:50:30.442Z,89.40
2023-05-05T00:53:03.345Z,89.30
2023-05-05T00:55:34.343Z,89.20
2023-05-05T00:58:03.157Z,89.20
2023-05-05T01:00:30.878Z,89.10
2023-05-05T01:02:58.529Z,89.10
2023-05-05T01:05:28.001Z,89.10
2023-05-05T01:08:13.631Z,89.00
2023-05-05T01:10:57.580Z,89.00
2023-05-05T01:13:50.275Z,89.00
2023-05-05T01:16:26.896Z,89.20
2023-05-05T01:19:40.292Z,89.20
2023-05-05T01:22:12.275Z,89.30
2023-05-05T01:25:04.054Z,89.10
2023-05-05T01:27:45.078Z,89.20
2023-05-05T01:30:30.909Z,89.10
2023-05-05T01:33:11.325Z,89.50
2023-05-05T01:35:43.900Z,89.80
2023-05-05T01:38:22.352Z,90.00
2023-05-05T01:41:05.225Z,90.10
2023-05-05T01:43:35.881Z,90.30
2023-05-05T01:46:04.946Z,90.60
2023-05-05T01:48:33.784Z,90.70
2023-05-05T01:51:04.956Z,90.90
2023-05-05T01:53:32.957Z,91.10
2023-05-05T01:56:01.687Z,91.30
2023-05-05T01:58:30.239Z,91.40
2023-05-05T02:00:59.062Z,91.30
2023-05-05T02:03:27.628Z,91.50
2023-05-05T02:05:55.535Z,92.00
2023-05-05T02:08:26.203Z,92.10
2023-05-05T02:10:55.242Z,92.20
2023-05-05T02:13:24.746Z,92.50
2023-05-05T02:15:53.660Z,92.70
2023-05-05T02:18:24.922Z,92.80
2023-05-05T02:20:53.189Z,92.90
2023-05-05T02:23:20.290Z,92.80
2023-05-05T02:25:51.125Z,93.10
2023-05-05T02:28:24.840Z,93.20
2023-05-05T02:30:58.504Z,93.20
2023-05-05T02:33:29.351Z,93.20
2023-05-05T02:35:57.698Z,93.40
2023-05-05T02:38:28.764Z,93.50
2023-05-05T02:41:01.695Z,93.50
2023-05-05T02:43:31.772Z,93.60
2023-05-05T02:45:58.903Z,93.80
2023-05-05T02:48:29.874Z,93.80
2023-05-05T02:51:00.502Z,93.80
2023-05-05T02:53:36.369Z,93.70
2023-05-05T02:56:31.077Z,93.60
2023-05-05T02:59:16.144Z,93.70
2023-05-05T03:02:15.540Z,93.80
2023-05-05T03:04:58.937Z,93.80
2023-05-05T03:07:30.564Z,93.90
2023-05-05T03:10:08.032Z,94.00
2023-05-05T03:12:49.925Z,94.00
2023-05-05T03:15:25.454Z,94.10
2023-05-05T03:17:54.076Z,94.20
2023-05-05T03:20:22.809Z,94.30
2023-05-05T03:22:51.376Z,94.30
2023-05-05T03:25:18.287Z,94.40
2023-05-05T03:27:45.520Z,94.50
2023-05-05T03:30:15.307Z,94.70
2023-05-05T03:32:48.586Z,94.70
2023-05-05T03:35:16.385Z,94.70
2023-05-05T03:37:43.291Z,94.70
2023-05-05T03:40:14.907Z,94.70
2023-05-05T03:42:41.873Z,94.70
2023-05-05T03:45:09.413Z,94.70
2023-05-05T03:47:37.020Z,94.70
2023-05-05T03:50:05.636Z,94.70
2023-05-05T03:52:32.740Z,94.70
2023-05-05T03:55:00.705Z,94.60
2023-05-05T03:57:27.867Z,94.70
2023-05-05T03:59:54.668Z,94.60
2023-05-05T04:02:22.121Z,94.50
2023-05-05T04:04:49.360Z,94.50
2023-05-05T04:07:16.487Z,94.40
2023-05-05T04:09:47.192Z,94.30
2023-05-05T04:12:14.464Z,94.30
2023-05-05T04:14:41.686Z,94.30
2023-05-05T04:17:09.356Z,94.30
2023-05-05T04:19:36.367Z,94.30
2023-05-05T04:22:04.061Z,94.20
2023-05-05T04:24:37.276Z,94.10
2023-05-05T04:27:04.625Z,94.10
2023-05-05T04:29:31.492Z,94.10
2023-05-05T04:31:58.992Z,94.10
2023-05-05T04:34:25.831Z,94.10
2023-05-05T04:36:52.725Z,94.10
2023-05-05T04:39:20.411Z,93.50
2023-05-05T04:41:48.026Z,93.40
2023-05-05T04:44:16.463Z,93.10
2023-05-05T04:46:44.490Z,92.90
2023-05-05T04:49:11.590Z,92.80
2023-05-05T04:51:42.860Z,92.60
2023-05-05T04:54:10.043Z,92.50
2023-05-05T04:56:37.300Z,92.40
2023-05-05T04:59:04.801Z,92.40
2023-05-05T05:01:32.132Z,92.30
2023-05-05T05:03:59.268Z,92.20
2023-05-05T05:06:27.589Z,91.90
2023-05-05T05:08:54.900Z,91.60
2023-05-05T05:11:22.566Z,91.30
2023-05-05T05:13:49.875Z,91.20
2023-05-05T05:16:17.167Z,90.80
2023-05-05T05:18:44.099Z,90.70
2023-05-05T05:21:13.229Z,90.60
2023-05-05T05:23:48.681Z,90.80
2023-05-05T05:26:16.425Z,90.80
2023-05-05T05:28:43.497Z,90.70
2023-05-05T05:31:12.389Z,90.60
2023-05-05T05:33:41.002Z,90.40
2023-05-05T05:36:08.404Z,89.70
2023-05-05T05:38:38.834Z,89.40
2023-05-05T05:41:11.986Z,88.60
2023-05-05T05:43:47.981Z,88.30
2023-05-05T05:46:21.623Z,88.30
2023-05-05T05:48:49.110Z,87.10
2023-05-05T05:51:16.446Z,86.70
2023-05-05T05:53:43.758Z,85.80
2023-05-05T05:56:11.311Z,85.70
2023-05-05T05:58:43.816Z,85.10
2023-05-05T06:01:11.834Z,84.20
2023-05-05T06:03:39.023Z,84.70
2023-05-05T06:06:07.772Z,85.00
2023-05-05T06:08:35.663Z,85.00
2023-05-05T06:11:02.798Z,85.20
2023-05-05T06:13:30.286Z,84.90
2023-05-05T06:15:57.634Z,84.20
2023-05-05T06:18:24.990Z,84.20
2023-05-05T06:20:56.055Z,83.20
2023-05-05T06:23:26.624Z,82.70
2023-05-05T06:25:58.615Z,82.60
2023-05-05T06:28:26.072Z,82.60
2023-05-05T06:30:53.014Z,82.10
2023-05-05T06:33:19.917Z,82.10
2023-05-05T06:35:47.847Z,80.70
2023-05-05T06:38:14.805Z,81.00
2023-05-05T06:40:42.115Z,81.70
2023-05-05T06:43:12.303Z,80.00
2023-05-05T06:45:46.102Z,77.90
2023-05-05T06:48:13.190Z,78.20
2023-05-05T06:50:40.485Z,77.80
2023-05-05T06:53:10.020Z,76.50
2023-05-05T06:55:36.970Z,75.50
2023-05-05T06:58:06.615Z,74.40
2023-05-05T07:00:38.924Z,74.50
2023-05-05T07:03:05.951Z,75.40
2023-05-05T07:05:33.252Z,74.70
2023-05-05T07:08:00.343Z,74.30
2023-05-05T07:10:28.125Z,75.60
2023-05-05T07:12:55.753Z,76.20
2023-05-05T07:15:28.829Z,76.30
2023-05-05T07:17:57.596Z,76.50
2023-05-05T07:20:25.401Z,76.00
2023-05-05T07:22:52.463Z,75.10
2023-05-05T07:25:19.722Z,76.20
2023-05-05T07:27:46.796Z,75.00
2023-05-05T07:30:18.099Z,73.20
2023-05-05T07:32:48.399Z,72.80
2023-05-05T07:35:17.980Z,72.30
2023-05-05T07:37:46.009Z,72.30
2023-05-05T07:40:15.301Z,72.20
2023-05-05T07:42:44.994Z,69.00
2023-05-05T07:45:11.975Z,67.20
2023-05-05T07:47:42.208Z,66.10
2023-05-05T07:50:09.758Z,66.30
2023-05-05T07:52:44.921Z,65.90
2023-05-05T07:55:15.148Z,65.10
2023-05-05T07:57:44.675Z,65.70
2023-05-05T08:00:13.736Z,65.50
2023-05-05T08:02:44.267Z,65.10
2023-05-05T08:05:12.275Z,64.30
2023-05-05T08:07:41.678Z,64.00
2023-05-05T08:10:15.326Z,63.60
2023-05-05T08:12:44.733Z,63.80
2023-05-05T08:15:11.815Z,62.80
2023-05-05T08:17:56.070Z,62.40
2023-05-05T08:20:27.588Z,60.50
2023-05-05T08:22:54.862Z,59.20
2023-05-05T08:25:22.218Z,59.80
2023-05-05T08:27:49.102Z,59.60
2023-05-05T08:30:21.149Z,59.00
2023-05-05T08:32:48.378Z,58.50
2023-05-05T08:35:15.838Z,59.20
2023-05-05T08:37:43.130Z,58.20
2023-05-05T08:40:16.920Z,57.80
2023-05-05T08:42:46.677Z,57.20
2023-05-05T08:45:13.628Z,56.40
2023-05-05T08:47:40.909Z,55.80
2023-05-05T08:50:10.566Z,54.90
2023-05-05T08:52:45.671Z,55.30
2023-05-05T08:55:25.707Z,57.20
2023-05-05T08:57:57.850Z,56.40
2023-05-05T09:00:27.374Z,55.70
2023-05-05T09:02:57.620Z,55.50
2023-05-05T09:05:26.301Z,55.40
2023-05-05T09:07:53.338Z,55.10
2023-05-05T09:10:25.827Z,54.90
2023-05-05T09:12:55.314Z,54.40
2023-05-05T09:15:22.209Z,55.40
2023-05-05T09:17:49.192Z,54.80
2023-05-05T09:20:19.010Z,54.50
2023-05-05T09:22:47.323Z,54.80
2023-05-05T09:25:15.981Z,54.80
2023-05-05T09:27:49.062Z,55.50
2023-05-05T09:30:18.074Z,56.30
2023-05-05T09:32:50.783Z,57.10
2023-05-05T09:35:18.582Z,58.50
2023-05-05T09:37:45.896Z,59.00
2023-05-05T09:40:18.050Z,59.20
2023-05-05T09:42:47.695Z,58.70
2023-05-05T09:45:19.967Z,58.40
2023-05-05T09:47:48.176Z,58.00
2023-05-05T09:50:21.232Z,57.00
2023-05-05T09:52:59.914Z,55.20
2023-05-05T09:55:28.161Z,55.40
2023-05-05T09:57:55.411Z,55.10
2023-05-05T10:00:22.611Z,53.30
2023-05-05T10:02:49.707Z,53.60
2023-05-05T10:05:18.281Z,55.70
2023-05-05T10:07:47.658Z,54.10
2023-05-05T10:10:17.779Z,55.30
2023-05-05T10:12:47.676Z,56.50
2023-05-05T10:15:16.388Z,56.50
2023-05-05T10:18:06.104Z,56.60
2023-05-05T10:20:38.720Z,56.90
2023-05-05T10:23:10.386Z,58.60
2023-05-05T10:25:45.252Z,58.40
2023-05-05T10:28:22.530Z,58.60
2023-05-05T10:30:52.676Z,58.30
2023-05-05T10:33:45.430Z,58.60
2023-05-05T10:36:13.392Z,57.80
2023-05-05T10:38:41.926Z,58.30
2023-05-05T10:41:11.949Z,58.60
2023-05-05T10:43:41.791Z,59.00
2023-05-05T10:46:12.322Z,58.50
2023-05-05T10:48:46.355Z,57.00
2023-05-05T10:51:39.203Z,57.10
2023-05-05T10:54:14.342Z,58.20
2023-05-05T10:56:43.123Z,58.10
2023-05-05T10:59:38.506Z,57.70
2023-05-05T11:02:32.221Z,58.00
2023-05-05T11:05:05.636Z,56.80
2023-05-05T11:07:37.122Z,57.90
2023-05-05T11:10:06.578Z,58.40
2023-05-05T11:13:03.193Z,58.80
2023-05-05T11:15:30.479Z,60.50
2023-05-05T11:18:05.834Z,63.70
2023-05-05T11:20:59.852Z,69.30
2023-05-05T11:23:30.234Z,87.90
2023-05-05T11:26:00.344Z,91.40
2023-05-05T11:28:34.277Z,92.50
2023-05-05T11:31:04.116Z,93.80
2023-05-05T11:33:38.886Z,95.00
2023-05-05T11:36:20.104Z,95.20
2023-05-05T11:39:09.249Z,95.60
2023-05-05T11:42:16.453Z,95.80
2023-05-05T11:44:43.662Z,96.10
2023-05-05T11:47:10.502Z,96.70
2023-05-05T11:49:39.022Z,96.60
2023-05-05T11:52:08.274Z,96.80
2023-05-05T11:54:47.857Z,96.70
2023-05-05T11:57:17.970Z,97.10
2023-05-05T11:59:58.360Z,97.50
2023-05-05T12:02:28.392Z,97.60
2023-05-05T12:04:56.756Z,97.70
2023-05-05T12:07:26.824Z,97.60
2023-05-05T12:09:56.703Z,97.50
2023-05-05T12:12:37.714Z,97.90
2023-05-05T12:15:05.809Z,97.90
2023-05-05T12:17:40.829Z,98.20
2023-05-05T12:20:11.555Z,98.30
2023-05-05T12:22:39.289Z,99.00
2023-05-05T12:25:08.611Z,96.80
2023-05-05T12:27:35.953Z,94.20
2023-05-05T12:30:15.807Z,92.20
2023-05-05T12:32:44.212Z,90.10
2023-05-05T12:35:13.109Z,89.50
2023-05-05T12:37:45.481Z,91.30
2023-05-05T12:40:45.791Z,91.30
2023-05-05T12:43:29.067Z,90.30
2023-05-05T12:46:42.947Z,89.00
2023-05-05T12:52:18.722Z,85.60
2023-05-05T12:55:02.101Z,84.40
2023-05-05T12:57:29.210Z,84.80
2023-05-05T12:59:56.623Z,86.20
2023-05-05T13:02:34.274Z,86.30
2023-05-05T13:05:01.626Z,88.50
2023-05-05T13:07:28.641Z,88.40
2023-05-05T13:10:09.567Z,87.30
2023-05-05T13:12:36.815Z,88.50
2023-05-05T13:15:04.598Z,88.80
2023-05-05T13:17:34.131Z,90.10
2023-05-05T13:20:01.988Z,89.50
2023-05-05T13:22:29.143Z,90.00
2023-05-05T13:24:56.009Z,90.20
2023-05-05T13:27:22.967Z,90.80
2023-05-05T13:29:49.898Z,88.10
2023-05-05T13:32:17.092Z,86.20
2023-05-05T13:34:44.288Z,84.40
2023-05-05T13:37:12.068Z,81.70
2023-05-05T13:39:39.124Z,76.40
2023-05-05T13:42:05.954Z,77.10
2023-05-05T13:44:32.943Z,73.80
2023-05-05T13:47:00.258Z,75.60
2023-05-05T13:49:27.463Z,76.90
2023-05-05T13:51:56.067Z,75.60
2023-05-05T13:54:25.367Z,75.70
2023-05-05T13:57:00.385Z,75.60
2023-05-05T13:59:27.828Z,75.10
2023-05-05T14:01:54.970Z,76.60
2023-05-05T14:04:22.224Z,77.60
2023-05-05T14:06:49.401Z,78.70
2023-05-05T14:09:16.979Z,78.70
2023-05-05T14:11:44.033Z,77.90
2023-05-05T14:14:11.377Z,78.60
2023-05-05T14:16:38.741Z,78.60
2023-05-05T14:19:05.646Z,79.20
2023-05-05T14:21:34.790Z,78.80
2023-05-05T14:24:02.094Z,80.50
2023-05-05T14:26:33.874Z,79.90
2023-05-05T14:29:00.741Z,80.60
2023-05-05T14:31:30.351Z,79.30
2023-05-05T14:33:57.299Z,79.90
2023-05-05T14:36:24.347Z,79.70
2023-05-05T14:38:51.215Z,75.50
2023-05-05T14:41:18.207Z,76.70
2023-05-05T14:43:45.447Z,76.80
2023-05-05T14:46:12.585Z,76.20
2023-05-05T14:48:39.485Z,78.60
2023-05-05T14:51:06.874Z,78.20
2023-05-05T14:53:34.909Z,74.10
2023-05-05T14:56:02.581Z,75.40
2023-05-05T14:58:29.552Z,75.80
2023-05-05T15:00:56.682Z,74.80
2023-05-05T15:03:26.279Z,73.40
2023-05-05T15:05:53.592Z,73.70
2023-05-05T15:08:20.424Z,72.40
2023-05-05T15:10:47.749Z,73.20
2023-05-05T15:13:15.025Z,74.20
2023-05-05T15:15:42.552Z,75.30
2023-05-05T15:18:09.386Z,76.50
2023-05-05T15:20:36.237Z,75.40
2023-05-05T15:23:03.353Z,78.90
2023-05-05T15:25:30.468Z,80.40
2023-05-05T15:27:58.784Z,81.50
2023-05-05T15:30:27.102Z,83.30
2023-05-05T15:32:54.504Z,85.30
2023-05-05T15:35:21.803Z,86.50
2023-05-05T15:37:51.789Z,84.30
2023-05-05T15:40:18.933Z,80.90
2023-05-05T15:42:45.911Z,79.00
2023-05-05T15:45:13.071Z,77.00
2023-05-05T15:47:40.086Z,74.30
2023-05-05T15:50:07.971Z,73.50
2023-05-05T15:52:35.456Z,72.50
2023-05-05T15:55:02.336Z,70.40
2023-05-05T15:57:29.320Z,70.80
2023-05-05T15:59:56.216Z,70.80
2023-05-05T16:02:23.129Z,69.60
2023-05-05T16:04:52.171Z,69.00
2023-05-05T16:07:19.386Z,70.30
2023-05-05T16:09:46.491Z,71.80
2023-05-05T16:12:13.288Z,72.80
2023-05-05T16:14:40.137Z,72.90
2023-05-05T16:17:09.327Z,74.20
2023-05-05T16:19:36.513Z,75.60
2023-05-05T16:22:04.072Z,75.60
2023-05-05T16:24:31.290Z,76.70
2023-05-05T16:27:00.471Z,78.30
2023-05-05T16:29:27.414Z,79.60
2023-05-05T16:31:54.589Z,80.90
2023-05-05T16:34:27.685Z,82.30
2023-05-05T16:36:54.734Z,83.50
2023-05-05T16:39:23.837Z,84.30
2023-05-05T16:41:51.062Z,84.90
2023-05-05T16:44:17.949Z,85.60
2023-05-05T16:46:51.601Z,87.20
2023-05-05T16:49:19.008Z,88.40
2023-05-05T16:51:48.491Z,86.90
2023-05-05T16:54:16.101Z,85.30
2023-05-05T16:56:42.886Z,83.80
2023-05-05T16:59:10.183Z,83.30
2023-05-05T17:01:39.120Z,84.50
2023-05-05T17:04:06.070Z,84.20
2023-05-05T17:06:33.279Z,84.80
2023-05-05T17:09:00.586Z,84.70
2023-05-05T17:11:27.506Z,86.70
2023-05-05T17:13:54.481Z,88.70
2023-05-05T17:16:21.698Z,89.10
2023-05-05T17:18:48.539Z,86.30
2023-05-05T17:21:17.714Z,87.00
2023-05-05T17:23:44.814Z,88.30
2023-05-05T17:26:12.007Z,88.80
2023-05-05T17:28:38.798Z,89.30
2023-05-05T17:31:06.031Z,90.10
2023-05-05T17:33:35.072Z,90.70
2023-05-05T17:36:02.350Z,91.80
2023-05-05T17:38:29.450Z,92.00
2023-05-05T17:40:56.267Z,92.10
2023-05-05T17:43:23.594Z,92.30
2023-05-05T17:45:50.607Z,92.60
2023-05-05T17:48:20.133Z,92.90
2023-05-05T17:50:51.163Z,93.20
2023-05-05T17:53:19.264Z,93.70
2023-05-05T17:55:47.106Z,93.70
2023-05-05T17:58:14.024Z,94.50
2023-05-05T18:00:43.679Z,94.70
2023-05-05T18:03:11.046Z,95.10
2023-05-05T18:05:38.087Z,95.60
2023-05-05T18:08:08.173Z,95.80
2023-05-05T18:10:37.732Z,96.20
2023-05-05T18:13:05.034Z,96.70
2023-05-05T18:15:32.016Z,96.60
2023-05-05T18:18:01.011Z,97.50
2023-05-05T18:20:28.056Z,98.00
2023-05-05T18:22:55.602Z,98.40
2023-05-05T18:25:25.940Z,98.50
2023-05-05T18:27:53.836Z,98.60
2023-05-05T18:30:20.935Z,98.40
2023-05-05T18:32:49.312Z,98.60
2023-05-05T18:35:21.644Z,98.90
2023-05-05T18:37:48.612Z,98.90
2023-05-05T18:40:20.963Z,99.10
2023-05-05T18:42:56.112Z,99.20
2023-05-05T18:45:24.766Z,99.50
2023-05-05T18:47:53.588Z,99.80
2023-05-05T18:50:25.978Z,99.80
2023-05-05T18:52:54.185Z,99.90
2023-05-05T18:55:24.037Z,99.90
2023-05-05T18:57:53.574Z,99.90
2023-05-05T19:00:23.641Z,99.90
2023-05-05T19:02:52.349Z,99.90
2023-05-05T19:05:19.396Z,99.90
2023-05-05T19:07:49.077Z,99.90
2023-05-05T19:10:17.541Z,99.90
2023-05-05T19:12:56.707Z,99.90
2023-05-05T19:15:26.176Z,99.90
2023-05-05T19:17:54.754Z,99.90
2023-05-05T19:20:25.853Z,99.90
2023-05-05T19:22:58.814Z,99.90
2023-05-05T19:25:38.055Z,99.90
2023-05-05T19:28:12.284Z,99.90
2023-05-05T19:30:45.192Z,99.90
2023-05-05T19:33:14.177Z,99.90
2023-05-05T19:35:41.435Z,99.90
2023-05-05T19:38:11.838Z,99.90
2023-05-05T19:40:43.968Z,99.90
2023-05-05T19:43:18.635Z,99.90
2023-05-05T19:45:47.994Z,99.90
2023-05-05T19:48:19.856Z,99.90
2023-05-05T19:50:51.137Z,99.90
2023-05-05T19:53:18.218Z,99.90
2023-05-05T19:55:47.525Z,99.90
2023-05-05T19:58:14.858Z,99.90
2023-05-05T20:00:46.701Z,99.90
2023-05-05T20:03:17.798Z,99.90
2023-05-05T20:05:44.943Z,99.90
2023-05-05T20:08:12.442Z,99.90
2023-05-05T20:10:39.604Z,99.90
2023-05-05T20:13:07.093Z,99.90
2023-05-05T20:15:36.054Z,99.90
2023-05-05T20:18:03.260Z,99.90
2023-05-05T20:20:30.406Z,99.90
2023-05-05T20:22:59.380Z,99.90
2023-05-05T20:25:26.371Z,99.90
2023-05-05T20:27:53.497Z,99.90
2023-05-05T20:30:20.664Z,99.90
2023-05-05T20:32:47.536Z,99.90
2023-05-05T20:35:16.783Z,99.90
2023-05-05T20:37:45.030Z,99.90
2023-05-05T20:40:12.865Z,99.90
2023-05-05T20:42:39.656Z,99.90
2023-05-05T20:45:07.353Z,99.90
2023-05-05T20:47:35.428Z,99.90
2023-05-05T20:50:02.690Z,99.90
2023-05-05T20:52:29.815Z,99.90
2023-05-05T20:54:56.910Z,99.90
2023-05-05T20:57:28.190Z,99.90
2023-05-05T20:59:54.949Z,99.90
2023-05-05T21:02:22.170Z,99.90
2023-05-05T21:04:49.470Z,99.90
2023-05-05T21:07:16.238Z,99.90
2023-05-05T21:09:47.998Z,99.90
2023-05-05T21:12:15.143Z,99.90
2023-05-05T21:14:45.927Z,99.90
2023-05-05T21:17:12.681Z,99.90
2023-05-05T21:19:39.452Z,99.90
2023-05-05T21:22:09.019Z,99.90
2023-05-05T21:24:36.146Z,99.90
2023-05-05T21:27:03.280Z,99.90
2023-05-05T21:29:34.588Z,99.90
2023-05-05T21:32:07.404Z,99.90
2023-05-05T21:34:38.476Z,99.90
2023-05-05T21:37:11.359Z,99.90
2023-05-05T21:39:40.822Z,99.90
2023-05-05T21:42:10.776Z,99.90
2023-05-05T21:44:40.869Z,99.90
2023-05-05T21:47:08.044Z,99.90
2023-05-05T21:49:35.131Z,99.90
2023-05-05T21:52:02.226Z,99.90
2023-05-05T21:54:30.672Z,99.90
2023-05-05T21:57:00.193Z,99.90
2023-05-05T21:59:29.643Z,99.90
2023-05-05T22:01:56.593Z,99.90
2023-05-05T22:04:28.766Z,99.90
2023-05-05T22:07:00.510Z,99.90
2023-05-05T22:09:27.743Z,99.90
2023-05-05T22:11:58.361Z,99.80
2023-05-05T22:14:26.115Z,99.80
2023-05-05T22:16:55.909Z,99.70
2023-05-05T22:19:24.187Z,99.70
2023-05-05T22:21:52.472Z,99.40
2023-05-05T22:24:20.626Z,99.40
2023-05-05T22:26:49.286Z,99.20
2023-05-05T22:29:19.321Z,99.20
2023-05-05T22:31:47.416Z,99.00
2023-05-05T22:34:23.136Z,98.90
2023-05-05T22:36:50.615Z,99.00
2023-05-05T22:39:23.856Z,99.10
2023-05-05T22:41:51.831Z,99.10
2023-05-05T22:44:22.484Z,99.20
2023-05-05T22:46:49.668Z,99.30
2023-05-05T22:49:17.626Z,99.40
2023-05-05T22:51:48.135Z,99.40
2023-05-05T22:54:15.344Z,99.40
2023-05-05T22:56:44.649Z,99.60
2023-05-05T22:59:14.291Z,99.70
2023-05-05T23:01:43.510Z,99.70
2023-05-05T23:04:11.923Z,99.80
2023-05-05T23:06:41.601Z,99.80
2023-05-05T23:09:09.743Z,99.80
2023-05-05T23:11:40.241Z,99.80
2023-05-05T23:14:13.792Z,99.90
2023-05-05T23:16:41.582Z,99.90
2023-05-05T23:19:09.849Z,99.90
2023-05-05T23:21:49.237Z,99.90
2023-05-05T23:24:19.252Z,99.90
2023-05-05T23:26:49.178Z,99.90
2023-05-05T23:29:18.665Z,99.90
2023-05-05T23:31:49.445Z,99.90
2023-05-05T23:34:17.849Z,99.90
2023-05-05T23:36:45.427Z,99.90
2023-05-05T23:39:13.517Z,99.90
2023-05-05T23:41:43.341Z,99.90
2023-05-05T23:44:12.810Z,99.90
2023-05-05T23:46:41.873Z,99.90
2023-05-05T23:49:09.869Z,99.90
2023-05-05T23:51:37.801Z,99.90
2023-05-05T23:54:04.972Z,99.90
2023-05-05T23:56:33.139Z,99.90
2023-05-05T23:59:00.325Z,99.90
